• Join FlightAware (Why Join?)
  • Login
  • US Flag 
12:19PM EDT


 

Airport Tracker/Info


-or-


 

Live Flight TrackerFlight Track Log ✈ DAL1903 ✈ 06-Apr-2013 ✈ KSRQ - KLGA

Flight Track Log - Related Links

Times and Time Zones

All times are in EDT time to prevent confusion due to time zone crossing. See the DAL1903 flight status page for this flight to view local times or setup timezone preferences in your user account.

Time Position Orientation Groundspeed Altitude Reporting Facility
EDT Latitude Longitude Course Direction KTS MPH feet Rate Location/Type
01:48PM 27.3833 -82.5333 138° Southeast 173 199 1,100  Level Tampa TRACON
01:49PM 27.3333 -82.4833 138° Southeast 228 262 2,900 1,920 Climbing Tampa TRACON
01:50PM 27.2667 -82.5167 204° Southwest 281 323 5,400 2,580 Climbing Tampa TRACON
01:52PM 27.3044 -82.6758 285° West 260 299 10,600 2,100 Climbing Miami Center
01:53PM 27.3653 -82.7186 328° Northwest 444 511 11,700 1,560 Climbing Miami Center
01:54PM 27.4639 -82.8078 321° Northwest 420 483 13,800 2,100 Climbing Miami Center
01:55PM 27.5350 -82.9028 310° West 402 463 16,000 2,100 Climbing Miami Center
01:56PM 27.6453 -82.9156 354° North 361 415 18,000 1,800 Climbing Miami Center
01:57PM 27.8139 -82.8269 25° Northeast 410 472 20,600 1,500 Climbing Jacksonville Center
01:58PM 27.9328 -82.7869 17° North 425 489 21,900 660 Climbing Jacksonville Center
01:59PM 28.0392 -82.7867 360° North 430 495 22,000 540 Climbing Jacksonville Center
02:00PM 28.1644 -82.7867 360° North 430 495 23,000 1,260 Climbing Jacksonville Center
02:01PM 28.2897 -82.7864 360° North 441 507 24,600 1,620 Climbing Jacksonville Center
02:02PM 28.4169 -82.7839 North 441 507 26,300 1,620 Climbing Jacksonville Center
02:03PM 28.5422 -82.7719 North 441 507 27,900 1,500 Climbing Jacksonville Center
02:04PM 28.6653 -82.7625 North 441 507 29,300 1,440 Climbing Jacksonville Center
02:05PM 28.7967 -82.7481 North 441 507 30,800 1,260 Climbing Jacksonville Center
02:06PM 28.9178 -82.7383 North 441 507 31,900 600 Climbing Jacksonville Center
02:07PM 29.0367 -82.7264 North 436 502 32,000  Climbing Jacksonville Center
02:08PM 29.1578 -82.7167 North 436 502 32,000  Level Jacksonville Center
02:09PM 29.2767 -82.7044 North 430 495 32,000  Level Jacksonville Center
02:10PM 29.3958 -82.6922 North 425 489 32,000  Level Jacksonville Center
02:11PM 29.5189 -82.6944 359° North 425 489 32,000  Level Jacksonville Center
02:12PM 29.6381 -82.6942 360° North 425 489 32,000  Level Jacksonville Center
02:13PM 29.7444 -82.6942 360° North 420 483 32,000 420 Level Jacksonville Center
02:14PM 29.8633 -82.6914 North 420 483 32,900 480 Climbing Jacksonville Center
02:15PM 29.9825 -82.6911 360° North 420 483 33,000  Climbing Jacksonville Center
02:16PM 30.0994 -82.6886 North 420 483 33,000  Level Jacksonville Center
02:17PM 30.2183 -82.6858 North 420 483 33,000  Level Jacksonville Center
02:18PM 30.3372 -82.6856 360° North 420 483 33,000  Level Jacksonville Center
02:19PM 30.4564 -82.6853 360° North 420 483 33,000  Level Jacksonville Center
02:20PM 30.5711 -82.6561 12° North 420 483 33,000  Level Jacksonville Center
02:21PM 30.6858 -82.6003 23° Northeast 415 478 33,000  Level Jacksonville Center
02:22PM 30.7983 -82.5467 22° Northeast 425 489 33,000  Level Jacksonville Center
02:23PM 30.9089 -82.4906 24° Northeast 430 495 33,000  Level Jacksonville Center
02:24PM 31.0236 -82.4319 24° Northeast 436 502 33,000  Level Jacksonville Center
02:25PM 31.1383 -82.3806 21° North 436 502 33,000  Level Jacksonville Center
02:26PM 31.2528 -82.3264 22° Northeast 436 502 33,000  Level Jacksonville Center
02:27PM 31.3653 -82.2697 23° Northeast 431 496 33,000  Level Jacksonville Center
02:28PM 31.4800 -82.2178 21° North 436 502 33,000  Level Jacksonville Center
02:29PM 31.5922 -82.1608 23° Northeast 436 502 33,000  Level Jacksonville Center
02:30PM 31.7131 -82.0939 25° Northeast 430 495 33,000  Level Jacksonville Center
02:31PM 31.8150 -82.0467 21° North 433 498 33,000  Level Jacksonville Center
02:32PM 31.9378 -81.9842 23° Northeast 428 493 33,000  Level Jacksonville Center
02:33PM 32.0417 -81.9072 32° Northeast 437 503 33,000  Level Jacksonville Center
02:34PM 32.1244 -81.8206 42° Northeast 445 512 33,000  Level Jacksonville Center
02:35PM 32.2342 -81.7236 37° Northeast 445 512 33,000  Level Jacksonville Center
02:36PM 32.3294 -81.6486 34° Northeast 445 512 33,000  Level Jacksonville Center
02:37PM 32.4456 -81.5608 33° Northeast 440 506 33,000  Level Jacksonville Center
02:38PM 32.5492 -81.4803 33° Northeast 440 506 33,000  Level Jacksonville Center
02:39PM 32.6422 -81.4122 32° Northeast 440 506 33,000  Level Jacksonville Center
02:40PM 32.7558 -81.3192 35° Northeast 445 512 33,000  Level Jacksonville Center
02:41PM 32.8614 -81.2356 34° Northeast 445 512 33,000  Level Jacksonville Center
02:42PM 32.9667 -81.1569 32° Northeast 445 512 33,000  Level Jacksonville Center
02:43PM 33.0575 -81.0858 33° Northeast 439 505 33,000  Level Jacksonville Center
02:44PM 33.1606 -81.0017 34° Northeast 439 505 33,000  Level Jacksonville Center
02:45PM 33.2658 -80.9200 33° Northeast 439 505 33,000  Level Jacksonville Center
02:46PM 33.3689 -80.8383 33° Northeast 439 505 33,000  Level Jacksonville Center
02:47PM 33.4739 -80.7561 33° Northeast 439 505 33,000  Level Jacksonville Center
02:48PM 33.5769 -80.6764 33° Northeast 439 505 33,000  Level Jacksonville Center
02:49PM 33.6797 -80.5939 34° Northeast 439 505 33,000  Level Jacksonville Center
02:50PM 33.7847 -80.5086 34° Northeast 439 505 33,000  Level Jacksonville Center
02:51PM 33.8875 -80.4258 34° Northeast 439 505 33,000  Level Jacksonville Center
02:52PM 33.9922 -80.3428 33° Northeast 439 505 33,000  Level Jacksonville Center
02:53PM 34.0947 -80.2594 34° Northeast 439 505 33,000  Level Jacksonville Center
02:54PM 34.1975 -80.1786 33° Northeast 439 505 33,000  Level Jacksonville Center
02:55PM 34.2997 -80.0925 35° Northeast 439 505 33,000  Level Jacksonville Center
02:57PM 34.4958 -79.9311 34° Northeast 444 511 33,000  Level Washington Center
02:58PM 34.5989 -79.8458 34° Northeast 444 511 33,000  Level Washington Center
02:59PM 34.7019 -79.7653 33° Northeast 444 511 33,000  Level Washington Center
03:00PM 34.8028 -79.6819 34° Northeast 439 505 33,000  Level Washington Center
03:01PM 34.9058 -79.5958 34° Northeast 439 505 33,000  Level Washington Center
03:02PM 35.0089 -79.5122 34° Northeast 439 505 33,000  Level Washington Center
03:03PM 35.1117 -79.4286 34° Northeast 439 505 33,000  Level Washington Center
03:04PM 35.2125 -79.3417 35° Northeast 439 505 33,000  Level Washington Center
03:05PM 35.3283 -79.2478 33° Northeast 439 505 33,000  Level Washington Center
03:06PM 35.4289 -79.1606 35° Northeast 445 512 33,000  Level Washington Center
03:07PM 35.5231 -79.0833 34° Northeast 445 512 33,000  Level Washington Center
03:08PM 35.6236 -78.9981 35° Northeast 445 512 33,000  Level Washington Center
03:09PM 35.7261 -78.9106 35° Northeast 445 512 33,000  Level Washington Center
03:10PM 35.8308 -78.8253 33° Northeast 450 518 33,000  Level Washington Center
03:11PM 35.9333 -78.7344 36° Northeast 450 518 33,000  Level Washington Center
03:12PM 36.0336 -78.6486 35° Northeast 450 518 33,000  Level Washington Center
03:13PM 36.1339 -78.5572 36° Northeast 450 518 33,000  Level Washington Center
03:14PM 36.2364 -78.4658 36° Northeast 450 518 33,000  Level Washington Center
03:15PM 36.3386 -78.3769 35° Northeast 450 518 33,000  Level Washington Center
03:16PM 36.4386 -78.2900 35° Northeast 450 518 33,000  Level Washington Center
03:17PM 36.5389 -78.1953 37° Northeast 445 512 33,000 300 Level Washington Center
03:18PM 36.6347 -78.1000 39° Northeast 445 512 33,700 720 Climbing Washington Center
03:19PM 36.7308 -77.9969 41° Northeast 445 512 34,500 600 Climbing Washington Center
03:20PM 36.8372 -77.8911 39° Northeast 445 512 35,000 240 Climbing Washington Center
03:21PM 36.9222 -77.8106 37° Northeast 437 503 35,000  Level Washington Center
03:22PM 37.0303 -77.7044 38° Northeast 437 503 35,000  Level Washington Center
03:23PM 37.1133 -77.6156 40° Northeast 432 497 35,000  Level Washington Center
03:24PM 37.2194 -77.5089 39° Northeast 437 503 35,000  Level Washington Center
03:25PM 37.3064 -77.4197 39° Northeast 442 509 35,000  Level Washington Center
03:26PM 37.4100 -77.3097 40° Northeast 442 509 35,000  Level Washington Center
03:27PM 37.5094 -77.2072 39° Northeast 442 509 35,000  Level Washington Center
03:28PM 37.5961 -77.1200 39° Northeast 442 509 35,000  Level Washington Center
03:29PM 37.6997 -77.0117 40° Northeast 442 509 35,000  Level Washington Center
03:30PM 37.7864 -76.9214 39° Northeast 442 509 35,000  Level Washington Center
03:31PM 37.8939 -76.8100 39° Northeast 442 509 35,000  Level Washington Center
03:32PM 37.9803 -76.7219 39° Northeast 442 509 35,000  Level Washington Center
03:33PM 38.0897 -76.6100 39° Northeast 448 516 35,000  Level Washington Center
03:34PM 38.1842 -76.5111 39° Northeast 453 521 35,000  Level Washington Center
03:35PM 38.2831 -76.4064 40° Northeast 453 521 35,000  Level Washington Center
03:36PM 38.3836 -76.3122 36° Northeast 453 521 35,000  Level Washington Center
03:37PM 38.4844 -76.2203 36° Northeast 442 509 35,000  Level Washington Center
03:38PM 38.5639 -76.1467 36° Northeast 442 509 35,000 -180 Level Washington Center
03:39PM 38.6728 -76.0436 36° Northeast 442 509 34,700 -1,440 Descending Washington Center
03:40PM 38.7731 -75.9483 37° Northeast 437 503 32,200 -2,700 Descending Washington Center
03:41PM 38.8775 -75.8531 35° Northeast 437 503 29,300 -2,820 Descending Washington Center
03:42PM 38.9778 -75.7572 37° Northeast 448 516 26,600 -1,860 Descending Washington Center
03:43PM 39.0800 -75.6639 35° Northeast 448 516 25,600 -1,020 Descending Washington Center
03:44PM 39.1800 -75.5647 38° Northeast 448 516 24,600 -1,200 Descending Washington Center
03:45PM 39.2781 -75.4736 36° Northeast 448 516 23,200 -1,560 Descending Washington Center
03:46PM 39.3778 -75.3875 34° Northeast 443 510 21,500 -1,800 Descending Washington Center
03:47PM 39.4736 -75.3039 34° Northeast 422 486 19,700 -1,620 Descending Washington Center
03:48PM 39.5650 -75.2200 35° Northeast 416 479 18,300 -1,200 Descending Washington Center
03:49PM 39.6625 -75.1278 36° Northeast 409 471 17,300 -1,200 Descending Washington Center
03:50PM 39.7497 -75.0517 34° Northeast 386 444 15,900 -1,380 Descending Washington Center
03:51PM 39.8286 -74.9864 32° Northeast 378 435 14,600 -1,260 Descending Washington Center
03:52PM 39.9117 -74.9125 34° Northeast 371 427 13,400 -1,320 Descending Washington Center
03:53PM 39.9881 -74.8061 47° Northeast 371 427 12,000 -1,380 Descending Washington Center
03:54PM 40.0333 -74.7333 51° Northeast 331 381 11,000 -1,200 Descending New York TRACON
03:55PM 40.0833 -74.6500 52° Northeast 294 338 10,000 -540 Descending New York TRACON
03:56PM 40.1500 -74.5833 37° Northeast 312 359 10,000  Level New York TRACON
03:57PM 40.2167 -74.4833 49° Northeast 344 396 10,000  Level New York TRACON
03:58PM 40.2833 -74.4000 44° Northeast 339 390 10,000 -60 Level New York TRACON
03:59PM 40.3500 -74.3167 44° Northeast 335 386 9,900 -600 Descending New York TRACON
04:00PM 40.4167 -74.2500 37° Northeast 293 337 8,900 -1,140 Descending New York TRACON
04:01PM 40.4667 -74.1833 45° Northeast 264 304 7,700 -1,380 Descending New York TRACON
04:02PM 40.5333 -74.1167 37° Northeast 254 292 6,100 -1,800 Descending New York TRACON
04:03PM 40.5833 -74.0667 37° Northeast 269 310 4,100 -1,620 Descending New York TRACON
04:04PM 40.6333 -74.0167 37° Northeast 260 299 3,100 -780 Descending New York TRACON
04:05PM 40.7000 -73.9500 37° Northeast 238 274 2,600 -720 Descending New York TRACON
04:06PM 40.7333 -73.8833 57° Northeast 198 228 1,700 -900 Descending New York TRACON
04:07PM 40.7500 -73.8333 66° East 150 173 800 -900 Descending New York TRACON
04:09PM 40.7667 -73.8667 30° Northeast  Level FlightAware Approximate
04:16PM 40.7772 -73.8726 30° Northeast  Level Estimated